Aeroporto :
LOGIN :

Iscrizione | Disclaimer

   EN    FR    IT 

 










Sommario :    VFR   VFR Marginale   IFR   IFR Intensivo   IFR Molto Intensivo
Visibilità : 
Base nubi : 
>= 8 km
>= 3000ft
5 / 8 km
1000 / 3000 ft
1500m / 5 km
500 / 1000 ft
800 / 1500m
200 / 500 ft
< 800m
< 200 ft
Simboli :   Temporali  Nebbia  Neve Forte  Precipitazioni Forti  Vento > 20 kt
SIGMETs :   Varie  Temporali  Ghiacco  Turbolenza  Onda orograficha  Ceneri Vulcaniche






- Altitudine del aeroporto : 200 ft


EBBL - Klein Brogel AB

ULTIMO METAR :
  • 032155Z AUTO 15005KT 9999 BKN026/// OVC060/// 06/03 Q0984 BLU

METARs OBSOLETI :
  • 032125Z AUTO 14005KT 9999 -DZ FEW027/// OVC030/// 06/03 Q0985 BLU
  • 032055Z AUTO 15006KT 9999 -RA OVC051/// 06/03 Q0986 BLU
  • 032025Z AUTO 15006KT 9999 -DZ OVC057/// 06/03 Q0986 BLU
  • 031955Z AUTO 15007KT 9999 -RA OVC051/// 06/03 Q0987 BLU
  • 031925Z AUTO 15006KT 9999 BKN048/// OVC087/// 06/02 Q0987 BLU

TAF TAF EBBL
Valido dal 03 a 19 ore il 04 a 07 ore UTC


031521Z 0319/0407 17010G20KT 9999 FEW025 BKN060
TEMPO 0319/0405 15015G25KT 5000 -RA FEW010 BKN030
TEMPO 0322/0407 15017G28KT 4000 RA SCT008 BKN025



MetMap, La meteo Aeronautica in un colpo d'occhio ! - Copyright ORBIFLY Dicembre 2007 - Disclaimer

ORBIFLY MET'MAP TEAM :

Programmazione e sviluppo : Alexandra Zaïnal
Concezione : Baudouin d'Aumeries
Aiuto per la programmazione : Marc-Olivier Méhu
Supporto tecnico e logistico : Manuel Goepfert
Aiuto per la traduzione : Arnaldo La Scala

Contatto : metmap@orbifly.com




FONTI E CREDITI :

   NOAA